sensor_id;sensor_type;location;lat;lon;timestamp;P1;durP1;ratioP1;P2;durP2;ratioP2
65759;SDS011;52496;51.082;5.066;2024-01-30T00:01:31;11.73;;;5.55;;
65759;SDS011;52496;51.082;5.066;2024-01-30T00:04:02;9.25;;;4.82;;
65759;SDS011;52496;51.082;5.066;2024-01-30T00:06:32;13.88;;;6.25;;
65759;SDS011;52496;51.082;5.066;2024-01-30T00:09:03;8.52;;;5.10;;
65759;SDS011;52496;51.082;5.066;2024-01-30T00:11:35;10.82;;;5.55;;
65759;SDS011;52496;51.082;5.066;2024-01-30T00:14:06;10.68;;;6.07;;
65759;SDS011;52496;51.082;5.066;2024-01-30T00:16:36;9.32;;;5.30;;
65759;SDS011;52496;51.082;5.066;2024-01-30T00:19:07;11.30;;;5.13;;
65759;SDS011;52496;51.082;5.066;2024-01-30T00:21:38;11.48;;;5.53;;
65759;SDS011;52496;51.082;5.066;2024-01-30T00:24:08;13.68;;;5.68;;
65759;SDS011;52496;51.082;5.066;2024-01-30T00:26:39;11.32;;;5.40;;
65759;SDS011;52496;51.082;5.066;2024-01-30T00:29:09;13.98;;;5.70;;
65759;SDS011;52496;51.082;5.066;2024-01-30T00:31:40;9.38;;;5.80;;
65759;SDS011;52496;51.082;5.066;2024-01-30T00:34:11;10.05;;;5.00;;
65759;SDS011;52496;51.082;5.066;2024-01-30T00:36:42;9.90;;;5.70;;
65759;SDS011;52496;51.082;5.066;2024-01-30T00:39:12;11.98;;;5.07;;
65759;SDS011;52496;51.082;5.066;2024-01-30T00:41:45;10.38;;;5.28;;
65759;SDS011;52496;51.082;5.066;2024-01-30T00:44:16;13.88;;;5.65;;
65759;SDS011;52496;51.082;5.066;2024-01-30T00:46:46;11.15;;;4.97;;
65759;SDS011;52496;51.082;5.066;2024-01-30T00:49:16;11.13;;;5.60;;
65759;SDS011;52496;51.082;5.066;2024-01-30T00:51:47;10.32;;;5.15;;
65759;SDS011;52496;51.082;5.066;2024-01-30T00:54:18;9.10;;;4.57;;
65759;SDS011;52496;51.082;5.066;2024-01-30T00:56:48;10.98;;;6.28;;
65759;SDS011;52496;51.082;5.066;2024-01-30T00:59:18;12.00;;;5.68;;
65759;SDS011;52496;51.082;5.066;2024-01-30T01:01:49;11.60;;;6.40;;
65759;SDS011;52496;51.082;5.066;2024-01-30T01:04:20;9.38;;;5.55;;
65759;SDS011;52496;51.082;5.066;2024-01-30T01:06:51;9.52;;;5.15;;
65759;SDS011;52496;51.082;5.066;2024-01-30T01:09:21;11.38;;;5.53;;
65759;SDS011;52496;51.082;5.066;2024-01-30T01:11:52;10.88;;;5.78;;
65759;SDS011;52496;51.082;5.066;2024-01-30T01:14:22;11.13;;;5.85;;
65759;SDS011;52496;51.082;5.066;2024-01-30T01:16:53;10.35;;;5.05;;
65759;SDS011;52496;51.082;5.066;2024-01-30T01:19:23;15.70;;;5.70;;
65759;SDS011;52496;51.082;5.066;2024-01-30T01:21:54;10.32;;;5.68;;
65759;SDS011;52496;51.082;5.066;2024-01-30T01:24:25;9.10;;;4.60;;
65759;SDS011;52496;51.082;5.066;2024-01-30T01:26:55;10.35;;;5.95;;
65759;SDS011;52496;51.082;5.066;2024-01-30T01:29:27;10.57;;;4.78;;
65759;SDS011;52496;51.082;5.066;2024-01-30T01:32:00;8.98;;;4.53;;
65759;SDS011;52496;51.082;5.066;2024-01-30T01:34:31;8.95;;;5.03;;
65759;SDS011;52496;51.082;5.066;2024-01-30T01:37:01;10.18;;;5.13;;
65759;SDS011;52496;51.082;5.066;2024-01-30T01:39:32;11.98;;;6.55;;
65759;SDS011;52496;51.082;5.066;2024-01-30T01:42:02;11.73;;;6.50;;
65759;SDS011;52496;51.082;5.066;2024-01-30T01:44:33;10.90;;;5.50;;
65759;SDS011;52496;51.082;5.066;2024-01-30T01:47:04;10.40;;;5.78;;
65759;SDS011;52496;51.082;5.066;2024-01-30T01:49:35;10.48;;;5.88;;
65759;SDS011;52496;51.082;5.066;2024-01-30T01:52:05;10.73;;;4.68;;
65759;SDS011;52496;51.082;5.066;2024-01-30T01:54:36;15.13;;;6.28;;
65759;SDS011;52496;51.082;5.066;2024-01-30T01:57:07;11.63;;;5.55;;
65759;SDS011;52496;51.082;5.066;2024-01-30T01:59:37;10.45;;;4.72;;
65759;SDS011;52496;51.082;5.066;2024-01-30T02:02:08;14.63;;;5.57;;
65759;SDS011;52496;51.082;5.066;2024-01-30T02:04:41;11.68;;;5.88;;
65759;SDS011;52496;51.082;5.066;2024-01-30T02:07:12;12.43;;;5.40;;
65759;SDS011;52496;51.082;5.066;2024-01-30T02:09:43;10.85;;;5.90;;
65759;SDS011;52496;51.082;5.066;2024-01-30T02:12:13;13.40;;;5.15;;
65759;SDS011;52496;51.082;5.066;2024-01-30T02:14:44;8.90;;;4.80;;
65759;SDS011;52496;51.082;5.066;2024-01-30T02:17:16;11.32;;;5.28;;
65759;SDS011;52496;51.082;5.066;2024-01-30T02:19:46;11.50;;;5.85;;
65759;SDS011;52496;51.082;5.066;2024-01-30T02:22:17;7.47;;;4.57;;
65759;SDS011;52496;51.082;5.066;2024-01-30T02:24:49;8.20;;;4.45;;
65759;SDS011;52496;51.082;5.066;2024-01-30T02:27:19;12.07;;;5.18;;
65759;SDS011;52496;51.082;5.066;2024-01-30T02:29:50;14.52;;;4.97;;
65759;SDS011;52496;51.082;5.066;2024-01-30T02:32:21;9.32;;;4.50;;
65759;SDS011;52496;51.082;5.066;2024-01-30T02:34:51;9.23;;;5.38;;
65759;SDS011;52496;51.082;5.066;2024-01-30T02:37:22;15.02;;;5.60;;
65759;SDS011;52496;51.082;5.066;2024-01-30T02:39:52;8.23;;;5.10;;
65759;SDS011;52496;51.082;5.066;2024-01-30T02:42:23;8.45;;;4.95;;
65759;SDS011;52496;51.082;5.066;2024-01-30T02:44:53;9.40;;;4.80;;
65759;SDS011;52496;51.082;5.066;2024-01-30T02:47:24;7.70;;;4.72;;
65759;SDS011;52496;51.082;5.066;2024-01-30T02:49:55;8.45;;;4.57;;
65759;SDS011;52496;51.082;5.066;2024-01-30T02:52:25;9.10;;;5.55;;
65759;SDS011;52496;51.082;5.066;2024-01-30T02:54:56;9.68;;;5.05;;
65759;SDS011;52496;51.082;5.066;2024-01-30T02:57:26;10.43;;;4.93;;
65759;SDS011;52496;51.082;5.066;2024-01-30T02:59:57;10.40;;;4.97;;
65759;SDS011;52496;51.082;5.066;2024-01-30T03:02:27;10.43;;;5.28;;
65759;SDS011;52496;51.082;5.066;2024-01-30T03:04:58;9.35;;;4.95;;
65759;SDS011;52496;51.082;5.066;2024-01-30T03:07:29;8.07;;;4.63;;
65759;SDS011;52496;51.082;5.066;2024-01-30T03:09:59;9.15;;;5.05;;
65759;SDS011;52496;51.082;5.066;2024-01-30T03:12:30;9.05;;;5.25;;
65759;SDS011;52496;51.082;5.066;2024-01-30T03:15:01;9.60;;;4.75;;
65759;SDS011;52496;51.082;5.066;2024-01-30T03:17:31;11.57;;;4.97;;
65759;SDS011;52496;51.082;5.066;2024-01-30T03:20:03;11.57;;;5.43;;
65759;SDS011;52496;51.082;5.066;2024-01-30T03:22:34;9.77;;;5.50;;
65759;SDS011;52496;51.082;5.066;2024-01-30T03:25:04;12.00;;;5.25;;
65759;SDS011;52496;51.082;5.066;2024-01-30T03:27:36;8.68;;;4.68;;
65759;SDS011;52496;51.082;5.066;2024-01-30T03:30:06;9.18;;;4.78;;
65759;SDS011;52496;51.082;5.066;2024-01-30T03:32:38;10.18;;;5.15;;
65759;SDS011;52496;51.082;5.066;2024-01-30T03:35:08;7.47;;;4.50;;
65759;SDS011;52496;51.082;5.066;2024-01-30T03:37:39;8.57;;;4.90;;
65759;SDS011;52496;51.082;5.066;2024-01-30T03:40:10;9.25;;;5.22;;
65759;SDS011;52496;51.082;5.066;2024-01-30T03:42:40;13.38;;;4.97;;
65759;SDS011;52496;51.082;5.066;2024-01-30T03:45:11;9.10;;;4.53;;
65759;SDS011;52496;51.082;5.066;2024-01-30T03:47:43;9.10;;;4.65;;
65759;SDS011;52496;51.082;5.066;2024-01-30T03:50:13;11.73;;;5.82;;
65759;SDS011;52496;51.082;5.066;2024-01-30T03:52:44;7.22;;;4.15;;
65759;SDS011;52496;51.082;5.066;2024-01-30T03:55:14;10.70;;;5.35;;
65759;SDS011;52496;51.082;5.066;2024-01-30T03:57:45;10.05;;;4.40;;
65759;SDS011;52496;51.082;5.066;2024-01-30T04:00:15;7.82;;;4.80;;
65759;SDS011;52496;51.082;5.066;2024-01-30T04:02:46;9.13;;;5.28;;
65759;SDS011;52496;51.082;5.066;2024-01-30T04:05:16;9.40;;;4.68;;
65759;SDS011;52496;51.082;5.066;2024-01-30T04:07:47;11.88;;;5.15;;
65759;SDS011;52496;51.082;5.066;2024-01-30T04:10:17;8.45;;;4.55;;
65759;SDS011;52496;51.082;5.066;2024-01-30T04:12:48;8.80;;;4.72;;
65759;SDS011;52496;51.082;5.066;2024-01-30T04:15:18;9.02;;;5.28;;
65759;SDS011;52496;51.082;5.066;2024-01-30T04:17:48;8.13;;;4.18;;
65759;SDS011;52496;51.082;5.066;2024-01-30T04:20:19;8.73;;;4.95;;
65759;SDS011;52496;51.082;5.066;2024-01-30T04:22:49;9.88;;;4.55;;
65759;SDS011;52496;51.082;5.066;2024-01-30T04:25:20;9.35;;;5.05;;
65759;SDS011;52496;51.082;5.066;2024-01-30T04:27:51;8.98;;;4.85;;
65759;SDS011;52496;51.082;5.066;2024-01-30T04:30:21;9.10;;;4.90;;
65759;SDS011;52496;51.082;5.066;2024-01-30T04:32:52;10.35;;;4.93;;
65759;SDS011;52496;51.082;5.066;2024-01-30T04:35:22;8.98;;;4.65;;
65759;SDS011;52496;51.082;5.066;2024-01-30T04:37:54;13.32;;;4.63;;
65759;SDS011;52496;51.082;5.066;2024-01-30T04:40:25;11.38;;;5.38;;
65759;SDS011;52496;51.082;5.066;2024-01-30T04:42:55;8.18;;;4.60;;
65759;SDS011;52496;51.082;5.066;2024-01-30T04:45:26;8.07;;;4.32;;
65759;SDS011;52496;51.082;5.066;2024-01-30T04:47:56;9.70;;;4.82;;
65759;SDS011;52496;51.082;5.066;2024-01-30T04:50:27;11.45;;;4.35;;
65759;SDS011;52496;51.082;5.066;2024-01-30T04:52:57;10.18;;;5.28;;
65759;SDS011;52496;51.082;5.066;2024-01-30T04:55:28;9.48;;;4.75;;
65759;SDS011;52496;51.082;5.066;2024-01-30T04:57:58;10.40;;;5.50;;
65759;SDS011;52496;51.082;5.066;2024-01-30T05:00:29;11.00;;;4.97;;
65759;SDS011;52496;51.082;5.066;2024-01-30T05:02:59;9.07;;;5.32;;
65759;SDS011;52496;51.082;5.066;2024-01-30T05:05:30;12.15;;;5.78;;
65759;SDS011;52496;51.082;5.066;2024-01-30T05:08:00;9.73;;;4.75;;
65759;SDS011;52496;51.082;5.066;2024-01-30T05:10:30;9.77;;;5.00;;
65759;SDS011;52496;51.082;5.066;2024-01-30T05:13:01;7.93;;;4.57;;
65759;SDS011;52496;51.082;5.066;2024-01-30T05:15:31;7.47;;;4.57;;
65759;SDS011;52496;51.082;5.066;2024-01-30T05:18:02;10.27;;;5.03;;
65759;SDS011;52496;51.082;5.066;2024-01-30T05:20:32;10.85;;;5.22;;
65759;SDS011;52496;51.082;5.066;2024-01-30T05:23:03;11.18;;;5.35;;
65759;SDS011;52496;51.082;5.066;2024-01-30T05:25:33;7.80;;;4.93;;
65759;SDS011;52496;51.082;5.066;2024-01-30T05:28:04;10.45;;;5.53;;
65759;SDS011;52496;51.082;5.066;2024-01-30T05:30:34;7.75;;;4.55;;
65759;SDS011;52496;51.082;5.066;2024-01-30T05:33:05;11.23;;;5.30;;
65759;SDS011;52496;51.082;5.066;2024-01-30T05:35:35;8.48;;;5.03;;
65759;SDS011;52496;51.082;5.066;2024-01-30T05:38:06;11.52;;;4.95;;
65759;SDS011;52496;51.082;5.066;2024-01-30T05:40:36;9.25;;;5.18;;
65759;SDS011;52496;51.082;5.066;2024-01-30T05:43:07;9.02;;;4.35;;
65759;SDS011;52496;51.082;5.066;2024-01-30T05:45:38;8.85;;;4.35;;
65759;SDS011;52496;51.082;5.066;2024-01-30T05:48:08;8.63;;;4.30;;
65759;SDS011;52496;51.082;5.066;2024-01-30T05:50:39;8.88;;;5.22;;
65759;SDS011;52496;51.082;5.066;2024-01-30T05:53:09;12.25;;;5.35;;
65759;SDS011;52496;51.082;5.066;2024-01-30T05:55:40;10.27;;;4.57;;
65759;SDS011;52496;51.082;5.066;2024-01-30T05:58:10;10.70;;;5.30;;
65759;SDS011;52496;51.082;5.066;2024-01-30T06:00:41;10.90;;;5.03;;
65759;SDS011;52496;51.082;5.066;2024-01-30T06:03:11;9.32;;;4.97;;
65759;SDS011;52496;51.082;5.066;2024-01-30T06:05:42;10.43;;;4.82;;
65759;SDS011;52496;51.082;5.066;2024-01-30T06:08:12;10.95;;;5.03;;
65759;SDS011;52496;51.082;5.066;2024-01-30T06:10:43;8.70;;;4.35;;
65759;SDS011;52496;51.082;5.066;2024-01-30T06:13:13;10.18;;;5.70;;
65759;SDS011;52496;51.082;5.066;2024-01-30T06:15:44;8.68;;;4.32;;
65759;SDS011;52496;51.082;5.066;2024-01-30T06:18:14;9.68;;;4.38;;
65759;SDS011;52496;51.082;5.066;2024-01-30T06:20:45;7.57;;;4.28;;
65759;SDS011;52496;51.082;5.066;2024-01-30T06:23:15;9.45;;;4.70;;
65759;SDS011;52496;51.082;5.066;2024-01-30T06:25:46;10.02;;;5.25;;
65759;SDS011;52496;51.082;5.066;2024-01-30T06:28:17;10.43;;;4.38;;
65759;SDS011;52496;51.082;5.066;2024-01-30T06:30:48;8.10;;;4.50;;
65759;SDS011;52496;51.082;5.066;2024-01-30T06:33:18;9.50;;;4.32;;
65759;SDS011;52496;51.082;5.066;2024-01-30T06:35:49;12.15;;;4.85;;
65759;SDS011;52496;51.082;5.066;2024-01-30T06:38:19;11.32;;;5.07;;
65759;SDS011;52496;51.082;5.066;2024-01-30T06:40:50;10.60;;;4.90;;
65759;SDS011;52496;51.082;5.066;2024-01-30T06:43:21;9.55;;;4.35;;
65759;SDS011;52496;51.082;5.066;2024-01-30T06:45:52;11.40;;;5.28;;
65759;SDS011;52496;51.082;5.066;2024-01-30T06:48:22;11.77;;;4.93;;
65759;SDS011;52496;51.082;5.066;2024-01-30T06:50:53;8.80;;;5.07;;
65759;SDS011;52496;51.082;5.066;2024-01-30T06:53:24;9.10;;;5.07;;
65759;SDS011;52496;51.082;5.066;2024-01-30T06:55:56;8.95;;;4.85;;
65759;SDS011;52496;51.082;5.066;2024-01-30T06:58:26;8.38;;;4.97;;
65759;SDS011;52496;51.082;5.066;2024-01-30T07:00:57;7.82;;;4.32;;
65759;SDS011;52496;51.082;5.066;2024-01-30T07:03:28;9.13;;;4.68;;
65759;SDS011;52496;51.082;5.066;2024-01-30T07:05:58;8.27;;;4.40;;
65759;SDS011;52496;51.082;5.066;2024-01-30T07:08:29;9.20;;;4.63;;
65759;SDS011;52496;51.082;5.066;2024-01-30T07:10:59;7.40;;;4.40;;
65759;SDS011;52496;51.082;5.066;2024-01-30T07:13:30;9.57;;;4.78;;
65759;SDS011;52496;51.082;5.066;2024-01-30T07:16:00;9.10;;;5.13;;
65759;SDS011;52496;51.082;5.066;2024-01-30T07:18:31;8.50;;;5.65;;
65759;SDS011;52496;51.082;5.066;2024-01-30T07:21:01;16.48;;;5.45;;
65759;SDS011;52496;51.082;5.066;2024-01-30T07:23:32;10.73;;;5.10;;
65759;SDS011;52496;51.082;5.066;2024-01-30T07:26:04;9.15;;;5.40;;
65759;SDS011;52496;51.082;5.066;2024-01-30T07:28:36;10.20;;;5.45;;
65759;SDS011;52496;51.082;5.066;2024-01-30T07:31:07;8.55;;;4.55;;
65759;SDS011;52496;51.082;5.066;2024-01-30T07:33:37;10.90;;;5.20;;
65759;SDS011;52496;51.082;5.066;2024-01-30T07:36:08;9.48;;;4.57;;
65759;SDS011;52496;51.082;5.066;2024-01-30T07:38:38;10.75;;;5.35;;
65759;SDS011;52496;51.082;5.066;2024-01-30T07:41:10;10.43;;;4.50;;
65759;SDS011;52496;51.082;5.066;2024-01-30T07:43:40;7.80;;;4.53;;
65759;SDS011;52496;51.082;5.066;2024-01-30T07:46:11;10.10;;;5.22;;
65759;SDS011;52496;51.082;5.066;2024-01-30T07:48:41;9.30;;;4.78;;
65759;SDS011;52496;51.082;5.066;2024-01-30T07:51:12;11.88;;;5.60;;
65759;SDS011;52496;51.082;5.066;2024-01-30T07:53:42;7.88;;;4.25;;
65759;SDS011;52496;51.082;5.066;2024-01-30T07:56:13;10.98;;;4.90;;
65759;SDS011;52496;51.082;5.066;2024-01-30T07:58:43;10.40;;;5.10;;
65759;SDS011;52496;51.082;5.066;2024-01-30T08:01:16;9.85;;;4.70;;
65759;SDS011;52496;51.082;5.066;2024-01-30T08:03:46;10.23;;;5.13;;
65759;SDS011;52496;51.082;5.066;2024-01-30T08:06:17;9.23;;;4.75;;
65759;SDS011;52496;51.082;5.066;2024-01-30T08:08:47;10.50;;;5.13;;
65759;SDS011;52496;51.082;5.066;2024-01-30T08:11:19;8.38;;;4.72;;
65759;SDS011;52496;51.082;5.066;2024-01-30T08:13:50;8.77;;;4.82;;
65759;SDS011;52496;51.082;5.066;2024-01-30T08:16:21;8.93;;;5.00;;
65759;SDS011;52496;51.082;5.066;2024-01-30T08:18:52;9.07;;;4.45;;
65759;SDS011;52496;51.082;5.066;2024-01-30T08:21:25;8.98;;;4.60;;
65759;SDS011;52496;51.082;5.066;2024-01-30T08:23:56;10.40;;;4.88;;
65759;SDS011;52496;51.082;5.066;2024-01-30T08:26:26;10.63;;;5.38;;
65759;SDS011;52496;51.082;5.066;2024-01-30T08:28:57;8.30;;;5.10;;
65759;SDS011;52496;51.082;5.066;2024-01-30T08:31:27;8.38;;;4.47;;
65759;SDS011;52496;51.082;5.066;2024-01-30T08:33:58;11.02;;;4.80;;
65759;SDS011;52496;51.082;5.066;2024-01-30T08:36:28;10.40;;;5.45;;
65759;SDS011;52496;51.082;5.066;2024-01-30T08:38:59;8.45;;;4.38;;
65759;SDS011;52496;51.082;5.066;2024-01-30T08:41:30;11.25;;;5.07;;
65759;SDS011;52496;51.082;5.066;2024-01-30T08:44:00;11.73;;;5.60;;
65759;SDS011;52496;51.082;5.066;2024-01-30T08:46:30;10.80;;;5.15;;
65759;SDS011;52496;51.082;5.066;2024-01-30T08:49:01;7.63;;;4.90;;
65759;SDS011;52496;51.082;5.066;2024-01-30T08:51:31;9.98;;;5.75;;
65759;SDS011;52496;51.082;5.066;2024-01-30T08:54:02;10.23;;;4.95;;
65759;SDS011;52496;51.082;5.066;2024-01-30T08:56:33;9.27;;;5.22;;
65759;SDS011;52496;51.082;5.066;2024-01-30T08:59:03;11.48;;;5.00;;
65759;SDS011;52496;51.082;5.066;2024-01-30T09:01:34;15.20;;;6.72;;
65759;SDS011;52496;51.082;5.066;2024-01-30T09:04:04;12.68;;;4.80;;
65759;SDS011;52496;51.082;5.066;2024-01-30T09:06:34;10.68;;;4.60;;
65759;SDS011;52496;51.082;5.066;2024-01-30T09:09:05;9.98;;;4.70;;
65759;SDS011;52496;51.082;5.066;2024-01-30T09:11:36;11.07;;;4.93;;
65759;SDS011;52496;51.082;5.066;2024-01-30T09:14:06;11.27;;;4.95;;
65759;SDS011;52496;51.082;5.066;2024-01-30T09:16:37;13.95;;;5.68;;
65759;SDS011;52496;51.082;5.066;2024-01-30T09:19:07;9.88;;;4.85;;
65759;SDS011;52496;51.082;5.066;2024-01-30T09:21:38;9.45;;;4.75;;
65759;SDS011;52496;51.082;5.066;2024-01-30T09:24:08;9.25;;;4.60;;
65759;SDS011;52496;51.082;5.066;2024-01-30T09:26:39;8.68;;;4.22;;
65759;SDS011;52496;51.082;5.066;2024-01-30T09:29:09;10.32;;;5.72;;
65759;SDS011;52496;51.082;5.066;2024-01-30T09:31:42;8.35;;;4.25;;
65759;SDS011;52496;51.082;5.066;2024-01-30T09:34:16;11.75;;;5.38;;
65759;SDS011;52496;51.082;5.066;2024-01-30T09:36:46;10.35;;;4.60;;
65759;SDS011;52496;51.082;5.066;2024-01-30T09:39:17;7.57;;;4.32;;
65759;SDS011;52496;51.082;5.066;2024-01-30T09:41:52;10.13;;;4.70;;
65759;SDS011;52496;51.082;5.066;2024-01-30T09:44:35;11.65;;;4.95;;
65759;SDS011;52496;51.082;5.066;2024-01-30T09:47:07;10.68;;;5.93;;
65759;SDS011;52496;51.082;5.066;2024-01-30T09:49:38;10.02;;;4.88;;
65759;SDS011;52496;51.082;5.066;2024-01-30T09:52:09;8.43;;;4.43;;
65759;SDS011;52496;51.082;5.066;2024-01-30T09:54:39;11.07;;;5.20;;
65759;SDS011;52496;51.082;5.066;2024-01-30T09:57:11;10.57;;;5.55;;
65759;SDS011;52496;51.082;5.066;2024-01-30T09:59:42;8.68;;;4.53;;
65759;SDS011;52496;51.082;5.066;2024-01-30T10:02:14;9.95;;;4.43;;
65759;SDS011;52496;51.082;5.066;2024-01-30T10:04:48;11.73;;;4.82;;
65759;SDS011;52496;51.082;5.066;2024-01-30T10:07:19;8.57;;;5.10;;
65759;SDS011;52496;51.082;5.066;2024-01-30T10:09:50;11.57;;;5.07;;
65759;SDS011;52496;51.082;5.066;2024-01-30T10:12:21;10.55;;;5.45;;
65759;SDS011;52496;51.082;5.066;2024-01-30T10:14:52;9.45;;;4.85;;
65759;SDS011;52496;51.082;5.066;2024-01-30T10:17:24;9.48;;;4.72;;
65759;SDS011;52496;51.082;5.066;2024-01-30T10:19:55;8.38;;;4.50;;
65759;SDS011;52496;51.082;5.066;2024-01-30T10:22:26;9.65;;;5.50;;
65759;SDS011;52496;51.082;5.066;2024-01-30T10:24:56;9.70;;;4.43;;
65759;SDS011;52496;51.082;5.066;2024-01-30T10:27:27;9.73;;;5.28;;
65759;SDS011;52496;51.082;5.066;2024-01-30T10:29:59;11.43;;;4.97;;
65759;SDS011;52496;51.082;5.066;2024-01-30T10:32:29;15.00;;;5.13;;
65759;SDS011;52496;51.082;5.066;2024-01-30T10:35:00;14.82;;;5.97;;
65759;SDS011;52496;51.082;5.066;2024-01-30T10:37:30;18.92;;;5.53;;
65759;SDS011;52496;51.082;5.066;2024-01-30T10:40:03;10.23;;;4.90;;
65759;SDS011;52496;51.082;5.066;2024-01-30T10:42:36;12.93;;;5.10;;
65759;SDS011;52496;51.082;5.066;2024-01-30T10:45:08;11.18;;;5.82;;
65759;SDS011;52496;51.082;5.066;2024-01-30T10:47:40;10.15;;;4.55;;
65759;SDS011;52496;51.082;5.066;2024-01-30T10:50:13;13.57;;;4.88;;
65759;SDS011;52496;51.082;5.066;2024-01-30T10:52:45;11.35;;;5.60;;
65759;SDS011;52496;51.082;5.066;2024-01-30T10:55:16;12.65;;;5.22;;
65759;SDS011;52496;51.082;5.066;2024-01-30T10:57:48;9.52;;;5.25;;
65759;SDS011;52496;51.082;5.066;2024-01-30T11:00:19;9.00;;;4.45;;
65759;SDS011;52496;51.082;5.066;2024-01-30T11:02:53;9.98;;;5.15;;
65759;SDS011;52496;51.082;5.066;2024-01-30T11:05:24;12.43;;;4.88;;
65759;SDS011;52496;51.082;5.066;2024-01-30T11:07:57;19.40;;;6.40;;
65759;SDS011;52496;51.082;5.066;2024-01-30T11:10:28;9.43;;;4.95;;
65759;SDS011;52496;51.082;5.066;2024-01-30T11:12:59;12.23;;;4.97;;
65759;SDS011;52496;51.082;5.066;2024-01-30T11:15:40;8.95;;;4.90;;
65759;SDS011;52496;51.082;5.066;2024-01-30T11:18:10;11.00;;;5.82;;
65759;SDS011;52496;51.082;5.066;2024-01-30T11:20:41;12.38;;;5.05;;
65759;SDS011;52496;51.082;5.066;2024-01-30T11:23:17;11.82;;;5.35;;
65759;SDS011;52496;51.082;5.066;2024-01-30T11:25:47;9.70;;;5.28;;
65759;SDS011;52496;51.082;5.066;2024-01-30T11:28:18;10.82;;;5.40;;
65759;SDS011;52496;51.082;5.066;2024-01-30T11:30:48;9.60;;;5.43;;
65759;SDS011;52496;51.082;5.066;2024-01-30T11:33:29;13.43;;;5.22;;
65759;SDS011;52496;51.082;5.066;2024-01-30T11:36:03;17.75;;;6.45;;
65759;SDS011;52496;51.082;5.066;2024-01-30T11:38:36;9.98;;;5.57;;
65759;SDS011;52496;51.082;5.066;2024-01-30T11:41:07;10.65;;;6.40;;
65759;SDS011;52496;51.082;5.066;2024-01-30T11:43:39;11.55;;;5.45;;
65759;SDS011;52496;51.082;5.066;2024-01-30T11:46:09;13.30;;;6.00;;
65759;SDS011;52496;51.082;5.066;2024-01-30T11:48:40;12.85;;;4.95;;
65759;SDS011;52496;51.082;5.066;2024-01-30T11:51:11;10.52;;;4.97;;
65759;SDS011;52496;51.082;5.066;2024-01-30T11:53:43;9.13;;;5.63;;
65759;SDS011;52496;51.082;5.066;2024-01-30T11:56:14;10.52;;;5.30;;
65759;SDS011;52496;51.082;5.066;2024-01-30T11:58:44;10.10;;;4.82;;
65759;SDS011;52496;51.082;5.066;2024-01-30T12:01:16;8.18;;;5.57;;
65759;SDS011;52496;51.082;5.066;2024-01-30T12:03:50;10.70;;;4.93;;
65759;SDS011;52496;51.082;5.066;2024-01-30T12:06:21;8.60;;;4.55;;
65759;SDS011;52496;51.082;5.066;2024-01-30T12:09:10;11.80;;;4.72;;
65759;SDS011;52496;51.082;5.066;2024-01-30T12:11:45;12.20;;;4.03;;
65759;SDS011;52496;51.082;5.066;2024-01-30T12:14:16;8.40;;;3.22;;
65759;SDS011;52496;51.082;5.066;2024-01-30T12:16:50;12.60;;;3.17;;
65759;SDS011;52496;51.082;5.066;2024-01-30T12:19:24;7.25;;;2.58;;
65759;SDS011;52496;51.082;5.066;2024-01-30T12:21:57;5.28;;;2.78;;
65759;SDS011;52496;51.082;5.066;2024-01-30T12:24:29;7.68;;;2.40;;
65759;SDS011;52496;51.082;5.066;2024-01-30T12:27:02;6.63;;;2.35;;
65759;SDS011;52496;51.082;5.066;2024-01-30T12:29:33;7.80;;;2.30;;
65759;SDS011;52496;51.082;5.066;2024-01-30T12:32:03;5.72;;;2.15;;
65759;SDS011;52496;51.082;5.066;2024-01-30T12:34:39;4.60;;;2.15;;
65759;SDS011;52496;51.082;5.066;2024-01-30T12:37:10;6.40;;;2.10;;
65759;SDS011;52496;51.082;5.066;2024-01-30T12:39:42;2.90;;;1.75;;
65759;SDS011;52496;51.082;5.066;2024-01-30T12:42:13;6.15;;;2.08;;
65759;SDS011;52496;51.082;5.066;2024-01-30T12:44:43;3.50;;;1.58;;
65759;SDS011;52496;51.082;5.066;2024-01-30T12:47:14;1.75;;;1.20;;
65759;SDS011;52496;51.082;5.066;2024-01-30T12:49:46;1.50;;;1.00;;
65759;SDS011;52496;51.082;5.066;2024-01-30T12:52:16;2.30;;;1.30;;
65759;SDS011;52496;51.082;5.066;2024-01-30T12:54:47;2.25;;;1.00;;
65759;SDS011;52496;51.082;5.066;2024-01-30T12:57:18;2.35;;;0.98;;
65759;SDS011;52496;51.082;5.066;2024-01-30T12:59:49;2.28;;;0.80;;
65759;SDS011;52496;51.082;5.066;2024-01-30T13:02:19;2.08;;;1.08;;
65759;SDS011;52496;51.082;5.066;2024-01-30T13:04:50;2.47;;;1.20;;
65759;SDS011;52496;51.082;5.066;2024-01-30T13:07:20;2.45;;;0.90;;
65759;SDS011;52496;51.082;5.066;2024-01-30T13:09:51;1.63;;;1.23;;
65759;SDS011;52496;51.082;5.066;2024-01-30T13:12:21;2.70;;;1.20;;
65759;SDS011;52496;51.082;5.066;2024-01-30T13:14:51;4.47;;;1.40;;
65759;SDS011;52496;51.082;5.066;2024-01-30T13:17:22;3.45;;;1.38;;
65759;SDS011;52496;51.082;5.066;2024-01-30T13:19:53;1.33;;;0.80;;
65759;SDS011;52496;51.082;5.066;2024-01-30T13:22:24;1.98;;;1.13;;
65759;SDS011;52496;51.082;5.066;2024-01-30T13:24:54;2.03;;;1.10;;
65759;SDS011;52496;51.082;5.066;2024-01-30T13:27:25;3.67;;;1.45;;
65759;SDS011;52496;51.082;5.066;2024-01-30T13:29:58;3.85;;;1.70;;
65759;SDS011;52496;51.082;5.066;2024-01-30T13:32:28;4.30;;;1.05;;
65759;SDS011;52496;51.082;5.066;2024-01-30T13:34:58;3.17;;;1.13;;
65759;SDS011;52496;51.082;5.066;2024-01-30T13:37:29;1.15;;;0.80;;
65759;SDS011;52496;51.082;5.066;2024-01-30T13:40:04;3.53;;;1.30;;
65759;SDS011;52496;51.082;5.066;2024-01-30T13:42:39;3.95;;;1.55;;
65759;SDS011;52496;51.082;5.066;2024-01-30T13:45:10;2.13;;;1.10;;
65759;SDS011;52496;51.082;5.066;2024-01-30T13:47:40;4.22;;;1.10;;
65759;SDS011;52496;51.082;5.066;2024-01-30T13:50:11;3.88;;;1.08;;
65759;SDS011;52496;51.082;5.066;2024-01-30T13:52:45;3.72;;;1.08;;
65759;SDS011;52496;51.082;5.066;2024-01-30T13:55:15;1.45;;;0.95;;
65759;SDS011;52496;51.082;5.066;2024-01-30T13:57:46;2.13;;;1.15;;
65759;SDS011;52496;51.082;5.066;2024-01-30T14:00:16;3.83;;;1.20;;
65759;SDS011;52496;51.082;5.066;2024-01-30T14:02:47;3.80;;;0.93;;
65759;SDS011;52496;51.082;5.066;2024-01-30T14:05:18;6.60;;;1.70;;
65759;SDS011;52496;51.082;5.066;2024-01-30T14:07:48;6.30;;;1.33;;
65759;SDS011;52496;51.082;5.066;2024-01-30T14:10:20;1.75;;;1.08;;
65759;SDS011;52496;51.082;5.066;2024-01-30T14:12:51;2.17;;;1.52;;
65759;SDS011;52496;51.082;5.066;2024-01-30T14:15:21;2.60;;;1.10;;
65759;SDS011;52496;51.082;5.066;2024-01-30T14:17:52;1.67;;;0.98;;
65759;SDS011;52496;51.082;5.066;2024-01-30T14:20:22;6.43;;;1.63;;
65759;SDS011;52496;51.082;5.066;2024-01-30T14:22:53;1.17;;;0.80;;
65759;SDS011;52496;51.082;5.066;2024-01-30T14:25:25;5.95;;;1.38;;
65759;SDS011;52496;51.082;5.066;2024-01-30T14:27:55;2.05;;;1.20;;
65759;SDS011;52496;51.082;5.066;2024-01-30T14:30:26;2.38;;;1.38;;
65759;SDS011;52496;51.082;5.066;2024-01-30T14:32:56;3.95;;;1.75;;
65759;SDS011;52496;51.082;5.066;2024-01-30T14:35:27;6.53;;;1.45;;
65759;SDS011;52496;51.082;5.066;2024-01-30T14:37:58;5.00;;;1.30;;
65759;SDS011;52496;51.082;5.066;2024-01-30T14:40:28;4.88;;;1.92;;
65759;SDS011;52496;51.082;5.066;2024-01-30T14:42:58;3.28;;;1.92;;
65759;SDS011;52496;51.082;5.066;2024-01-30T14:45:29;2.53;;;1.33;;
65759;SDS011;52496;51.082;5.066;2024-01-30T14:48:01;3.15;;;1.35;;
65759;SDS011;52496;51.082;5.066;2024-01-30T14:50:32;2.90;;;1.35;;
65759;SDS011;52496;51.082;5.066;2024-01-30T14:53:03;3.10;;;1.35;;
65759;SDS011;52496;51.082;5.066;2024-01-30T14:55:34;2.65;;;1.63;;
65759;SDS011;52496;51.082;5.066;2024-01-30T14:58:04;4.03;;;1.85;;
65759;SDS011;52496;51.082;5.066;2024-01-30T15:00:35;5.90;;;1.83;;
65759;SDS011;52496;51.082;5.066;2024-01-30T15:03:08;5.00;;;1.73;;
65759;SDS011;52496;51.082;5.066;2024-01-30T15:05:39;2.78;;;1.40;;